createdAt,value
2023-05-05T00:03:53.119Z,87.40
2023-05-05T00:12:01.089Z,86.90
2023-05-05T00:20:07.253Z,86.60
2023-05-05T00:28:15.504Z,86.80
2023-05-05T00:36:20.915Z,87.00
2023-05-05T00:44:45.132Z,87.20
2023-05-05T00:52:50.658Z,86.60
2023-05-05T01:00:58.686Z,86.60
2023-05-05T01:09:13.215Z,87.20
2023-05-05T01:17:24.990Z,86.60
2023-05-05T01:25:53.517Z,86.50
2023-05-05T01:34:07.172Z,86.50
2023-05-05T01:42:16.458Z,87.10
2023-05-05T01:50:25.779Z,86.60
2023-05-05T01:58:33.066Z,86.70
2023-05-05T02:06:43.057Z,88.00
2023-05-05T02:14:49.964Z,88.00
2023-05-05T02:22:58.917Z,88.80
2023-05-05T02:31:05.740Z,89.20
2023-05-05T02:39:17.410Z,89.20
2023-05-05T02:47:24.264Z,89.40
2023-05-05T02:55:40.089Z,89.40
2023-05-05T03:03:50.237Z,89.80
2023-05-05T03:12:05.016Z,90.00
2023-05-05T03:20:18.360Z,89.50
2023-05-05T03:28:29.503Z,89.80
2023-05-05T03:36:38.319Z,90.30
2023-05-05T03:44:48.743Z,89.10
2023-05-05T03:52:54.571Z,88.00
2023-05-05T04:01:03.011Z,87.10
2023-05-05T04:09:09.063Z,86.60
2023-05-05T04:17:18.862Z,87.20
2023-05-05T04:25:24.416Z,87.30
2023-05-05T04:33:32.730Z,87.20
2023-05-05T04:41:38.352Z,87.80
2023-05-05T04:49:46.669Z,89.50
2023-05-05T04:57:52.171Z,89.70
2023-05-05T05:06:00.533Z,89.10
2023-05-05T05:14:06.115Z,87.80
2023-05-05T05:22:14.741Z,87.30
2023-05-05T05:30:22.021Z,86.70
2023-05-05T05:38:30.368Z,85.80
2023-05-05T05:46:39.005Z,86.00
2023-05-05T05:54:47.486Z,86.40
2023-05-05T06:02:53.408Z,86.50
2023-05-05T06:11:05.468Z,85.20
2023-05-05T06:19:11.404Z,84.10
2023-05-05T06:27:19.802Z,83.40
2023-05-05T06:35:28.054Z,82.80
2023-05-05T06:43:36.199Z,77.00
2023-05-05T06:51:46.204Z,78.00
2023-05-05T06:59:54.214Z,73.80
2023-05-05T07:08:00.225Z,72.60
2023-05-05T07:16:08.910Z,72.60
2023-05-05T07:24:18.095Z,71.60
2023-05-05T07:32:26.263Z,70.10
2023-05-05T07:40:31.705Z,71.40
2023-05-05T07:48:41.835Z,70.30
2023-05-05T07:56:48.881Z,67.60
2023-05-05T08:04:56.936Z,65.10
2023-05-05T08:13:02.521Z,66.70
2023-05-05T08:21:11.437Z,68.80
2023-05-05T08:29:22.364Z,68.40
2023-05-05T08:37:30.779Z,69.10
2023-05-05T08:45:36.434Z,68.70
2023-05-05T08:53:54.491Z,67.60
2023-05-05T09:02:00.694Z,67.50
2023-05-05T09:10:12.595Z,67.30
2023-05-05T09:18:18.207Z,66.10
2023-05-05T09:26:26.669Z,64.50
2023-05-05T09:34:33.187Z,63.90
2023-05-05T09:42:45.013Z,64.40
2023-05-05T09:50:50.744Z,65.10
2023-05-05T09:59:12.079Z,62.80
2023-05-05T10:07:27.556Z,60.60
2023-05-05T10:15:35.566Z,57.50
2023-05-05T10:23:44.655Z,57.80
2023-05-05T10:31:57.213Z,56.50
2023-05-05T10:40:04.370Z,56.10
2023-05-05T10:48:17.594Z,53.10
2023-05-05T10:56:28.883Z,52.90
2023-05-05T11:04:36.996Z,53.90
2023-05-05T11:13:15.490Z,53.50
2023-05-05T11:21:24.614Z,53.90
2023-05-05T11:29:30.308Z,43.20
2023-05-05T11:37:40.695Z,36.90
2023-05-05T11:45:47.719Z,39.50
2023-05-05T11:53:57.329Z,41.10
2023-05-05T12:02:04.055Z,33.80
2023-05-05T12:10:13.392Z,29.10
2023-05-05T12:18:22.084Z,28.70
2023-05-05T12:26:42.120Z,31.80
2023-05-05T12:34:48.526Z,30.00
2023-05-05T12:42:56.614Z,27.90
2023-05-05T12:51:18.139Z,27.30
2023-05-05T12:59:35.320Z,26.00
2023-05-05T13:07:53.700Z,28.90
2023-05-05T13:16:01.856Z,36.70
2023-05-05T13:24:23.654Z,41.60
2023-05-05T13:32:36.871Z,45.70
2023-05-05T13:40:42.290Z,52.30
2023-05-05T13:48:52.502Z,51.90
2023-05-05T13:57:01.480Z,52.20
2023-05-05T14:05:11.102Z,52.00
2023-05-05T14:13:16.724Z,52.00
2023-05-05T14:21:24.964Z,52.80
2023-05-05T14:29:30.469Z,54.00
2023-05-05T14:37:38.462Z,55.30
2023-05-05T14:45:44.486Z,55.90
2023-05-05T14:53:52.625Z,56.30
2023-05-05T15:01:58.974Z,56.50
2023-05-05T15:10:08.456Z,56.50
2023-05-05T15:18:14.007Z,57.50
2023-05-05T15:26:24.130Z,56.70
2023-05-05T15:34:29.605Z,57.30
2023-05-05T15:42:40.517Z,57.30
2023-05-05T15:50:45.956Z,56.90
2023-05-05T15:58:54.059Z,58.50
2023-05-05T16:06:59.493Z,58.70
2023-05-05T16:15:08.679Z,59.30
2023-05-05T16:23:24.508Z,59.10
2023-05-05T16:31:34.154Z,58.80
2023-05-05T16:39:41.529Z,58.80
2023-05-05T16:47:49.959Z,58.60
2023-05-05T16:55:56.533Z,59.10
2023-05-05T17:04:04.622Z,59.20
2023-05-05T17:12:10.963Z,58.40
2023-05-05T17:20:19.281Z,58.50
2023-05-05T17:28:24.671Z,59.40
2023-05-05T17:36:35.800Z,59.60
2023-05-05T17:44:41.145Z,60.20
2023-05-05T17:52:50.807Z,60.20
2023-05-05T18:00:56.316Z,60.60
2023-05-05T18:09:04.894Z,60.90
2023-05-05T18:17:10.289Z,61.60
2023-05-05T18:25:19.407Z,61.70
2023-05-05T18:33:24.851Z,62.60
2023-05-05T18:41:33.092Z,62.90
2023-05-05T18:49:38.625Z,63.50
2023-05-05T18:57:46.743Z,64.30
2023-05-05T19:05:52.457Z,65.10
2023-05-05T19:14:01.497Z,66.30
2023-05-05T19:22:07.115Z,69.00
2023-05-05T19:30:16.533Z,70.30
2023-05-05T19:38:22.124Z,68.90
2023-05-05T19:46:30.209Z,68.90
2023-05-05T19:54:36.412Z,68.60
2023-05-05T20:02:47.846Z,69.80
2023-05-05T20:10:53.268Z,69.40
2023-05-05T20:19:01.303Z,70.20
2023-05-05T20:27:06.939Z,71.00
2023-05-05T20:35:15.370Z,73.10
2023-05-05T20:43:21.424Z,72.70
2023-05-05T20:51:32.246Z,72.90
2023-05-05T20:59:37.724Z,72.80
2023-05-05T21:07:47.130Z,73.20
2023-05-05T21:15:53.323Z,73.80
2023-05-05T21:24:01.446Z,73.80
2023-05-05T21:32:12.270Z,74.10
2023-05-05T21:40:20.769Z,74.00
2023-05-05T21:48:28.614Z,73.80
2023-05-05T21:56:37.023Z,73.50
2023-05-05T22:04:42.681Z,73.80
2023-05-05T22:12:51.196Z,75.30
2023-05-05T22:20:57.145Z,75.60
2023-05-05T22:29:05.507Z,75.60
2023-05-05T22:37:11.912Z,76.10
2023-05-05T22:45:20.270Z,75.80
2023-05-05T22:53:27.571Z,75.80
2023-05-05T23:01:36.389Z,75.70
2023-05-05T23:09:42.332Z,76.20
2023-05-05T23:17:50.600Z,76.40
2023-05-05T23:25:56.338Z,76.20
2023-05-05T23:34:04.684Z,77.70
2023-05-05T23:42:10.166Z,77.80
2023-05-05T23:50:18.080Z,77.70
2023-05-05T23:58:23.758Z,77.80
